Time;durP1;ratioP1;P1;durP2;ratioP2;P2;SDS_P1;SDS_P2;PMS_P1;PMS_P2;Temp;Humidity;BMP_temperature;BMP_pressure;BME280_temperature;BME280_humidity;BME280_pressure;Samples;Min_cycle;Max_cycle;Signal;HPM_P1;HPM_P2
2021/11/14 00:01:04;;;;;;;85.95;39.20;;;;;;;8.34;100.00;97943.84;4962292;29;20007;-73
2021/11/14 00:03:34;;;;;;;89.70;39.90;;;;;;;8.29;100.00;97940.34;4979773;28;20038;-71
2021/11/14 00:06:01;;;;;;;85.47;40.38;;;;;;;8.36;100.00;97935.41;4977042;28;20034;-75
2021/11/14 00:08:27;;;;;;;79.72;37.75;;;;;;;8.45;100.00;97939.16;4988689;28;20079;-75
2021/11/14 00:10:57;;;;;;;81.75;38.88;;;;;;;8.35;100.00;97933.75;4979366;28;20042;-73
2021/11/14 00:13:25;;;;;;;86.13;40.00;;;;;;;8.25;100.00;97942.75;4979890;28;20026;-72
2021/11/14 00:15:51;;;;;;;89.80;40.55;;;;;;;8.15;100.00;97939.25;4979606;28;20019;-73
2021/11/14 00:18:17;;;;;;;91.40;41.42;;;;;;;8.07;100.00;97940.69;4985495;28;20015;-72
2021/11/14 00:20:44;;;;;;;86.13;39.92;;;;;;;8.02;100.00;97937.97;4998776;28;20023;-81
2021/11/14 00:23:10;;;;;;;93.70;41.03;;;;;;;7.93;100.00;97943.19;4972154;29;20019;-82
2021/11/14 00:25:36;;;;;;;90.32;41.53;;;;;;;7.89;100.00;97947.53;4987740;28;20043;-82
2021/11/14 00:28:02;;;;;;;81.72;36.70;;;;;;;7.88;100.00;97942.41;4977261;28;20067;-73
2021/11/14 00:30:27;;;;;;;78.50;35.17;;;;;;;7.89;100.00;97941.31;4978835;28;20054;-74
2021/11/14 00:32:53;;;;;;;88.88;39.95;;;;;;;7.85;100.00;97945.66;4979479;28;20023;-75
2021/11/14 00:35:20;;;;;;;83.22;37.80;;;;;;;7.80;100.00;97951.16;4976465;28;20103;-82
2021/11/14 00:37:46;;;;;;;87.40;39.67;;;;;;;7.72;100.00;97944.34;4977859;28;20015;-79
2021/11/14 00:40:16;;;;;;;89.00;39.42;;;;;;;7.75;100.00;97941.06;4977544;28;20095;-76
2021/11/14 00:42:41;;;;;;;87.95;38.60;;;;;;;7.78;100.00;97948.69;4979582;28;20079;-75
2021/11/14 00:45:08;;;;;;;88.25;38.45;;;;;;;7.73;100.00;97943.28;4976972;29;20032;-80
2021/11/14 00:47:34;;;;;;;82.80;36.72;;;;;;;7.69;100.00;97946.81;4975089;29;20038;-81
2021/11/14 00:50:00;;;;;;;78.95;35.60;;;;;;;7.72;100.00;97954.44;4991696;28;20027;-79
2021/11/14 00:52:25;;;;;;;82.20;34.90;;;;;;;7.70;100.00;97945.72;4989085;28;20042;-79
2021/11/14 00:54:51;;;;;;;80.65;35.65;;;;;;;7.70;100.00;97938.38;4991189;28;20027;-77
2021/11/14 00:57:16;;;;;;;78.80;34.25;;;;;;;7.72;100.00;97941.63;4986008;28;20019;-79
2021/11/14 00:59:42;;;;;;;74.97;31.83;;;;;;;7.71;100.00;97942.72;4994339;28;20033;-77
2021/11/14 01:02:07;;;;;;;75.72;33.08;;;;;;;7.79;100.00;97944.06;4996742;28;20025;-71
2021/11/14 01:04:33;;;;;;;69.32;31.20;;;;;;;7.80;100.00;97945.69;4993856;28;20095;-74
2021/11/14 01:06:58;;;;;;;70.07;29.52;;;;;;;7.75;100.00;97948.44;4990916;28;20051;-79
2021/11/14 01:09:25;;;;;;;67.97;30.50;;;;;;;7.73;100.00;97937.81;4989529;28;20109;-80
2021/11/14 01:11:51;;;;;;;81.63;33.13;;;;;;;7.70;100.00;97945.72;4995500;28;20014;-78
2021/11/14 01:14:16;;;;;;;84.70;33.67;;;;;;;7.74;100.00;97950.31;4997046;28;20078;-72
2021/11/14 01:16:42;;;;;;;71.82;31.05;;;;;;;7.73;100.00;97942.44;4997727;28;20019;-76
2021/11/14 01:19:07;;;;;;;71.32;30.35;;;;;;;7.75;100.00;97934.81;4994702;28;20181;-79
2021/11/14 01:21:33;;;;;;;71.30;30.65;;;;;;;7.83;100.00;97935.03;4994453;28;20019;-80
2021/11/14 01:23:59;;;;;;;67.38;32.83;;;;;;;7.80;100.00;97926.66;4998699;28;20015;-80
2021/11/14 01:26:27;;;;;;;72.30;33.10;;;;;;;7.82;100.00;97919.00;4999804;28;20006;-78
2021/11/14 01:28:52;;;;;;;66.22;29.10;;;;;;;7.85;100.00;97922.00;4988950;28;21469;-73
2021/11/14 01:31:18;;;;;;;79.60;34.15;;;;;;;7.84;100.00;97924.97;4982098;28;20019;-72
2021/11/14 01:33:43;;;;;;;65.88;30.92;;;;;;;7.91;100.00;97933.66;4970074;28;20035;-79
2021/11/14 01:36:09;;;;;;;70.95;31.20;;;;;;;7.79;100.00;97925.00;4951628;29;20143;-79
2021/11/14 01:38:34;;;;;;;69.28;31.70;;;;;;;7.72;100.00;97924.47;4973831;29;20032;-80
2021/11/14 01:41:11;;;;;;;71.47;29.80;;;;;;;7.75;100.00;97923.91;4956018;29;20115;-79
2021/11/14 01:43:48;;;;;;;66.40;31.13;;;;;;;7.78;100.00;97929.63;4967831;29;20042;-79
2021/11/14 01:46:15;;;;;;;71.15;29.90;;;;;;;7.75;100.00;97926.66;4967857;29;20027;-79
2021/11/14 01:48:41;;;;;;;81.50;32.90;;;;;;;7.76;100.00;97922.84;4961898;29;20082;-78
2021/11/14 01:51:08;;;;;;;61.97;30.77;;;;;;;7.74;100.00;97916.84;4960978;29;20007;-78
2021/11/14 01:53:35;;;;;;;70.30;30.35;;;;;;;7.67;100.00;97910.91;4961182;29;20019;-79
2021/11/14 01:56:03;;;;;;;68.05;30.55;;;;;;;7.72;100.00;97916.31;4964291;29;20407;-79
2021/11/14 01:58:29;;;;;;;63.65;31.52;;;;;;;7.70;100.00;97911.16;4964007;29;20028;-79
2021/11/14 02:01:05;;;;;;;61.58;28.05;;;;;;;7.64;100.00;97906.00;4962057;29;20034;-79
2021/11/14 02:03:33;;;;;;;71.22;31.27;;;;;;;7.69;100.00;97919.59;4961315;29;20027;-79
2021/11/14 02:06:00;;;;;;;72.60;31.48;;;;;;;7.70;100.00;97927.50;4961732;29;20023;-79
2021/11/14 02:08:26;;;;;;;68.20;30.98;;;;;;;7.66;100.00;97925.59;4962568;29;20038;-78
2021/11/14 02:10:52;;;;;;;66.32;30.67;;;;;;;7.70;100.00;97926.69;4963011;29;20028;-79
2021/11/14 02:13:17;;;;;;;69.47;31.48;;;;;;;7.71;100.00;97928.28;4963935;29;20023;-79
2021/11/14 02:15:43;;;;;;;65.93;30.55;;;;;;;7.62;100.00;97924.50;4965772;29;20049;-80
2021/11/14 02:18:12;;;;;;;72.55;31.67;;;;;;;7.52;100.00;97917.19;4965317;29;20033;-79
2021/11/14 02:20:39;;;;;;;80.03;32.80;;;;;;;7.54;100.00;97925.91;4968534;29;20031;-79
2021/11/14 02:23:08;;;;;;;77.80;32.85;;;;;;;7.51;100.00;97934.63;4968576;29;20102;-79
2021/11/14 02:25:34;;;;;;;77.63;32.15;;;;;;;7.53;100.00;97935.16;4963892;29;20441;-79
2021/11/14 02:27:59;;;;;;;75.32;31.75;;;;;;;7.45;100.00;97933.81;4963358;28;20539;-79
2021/11/14 02:30:26;;;;;;;70.15;29.48;;;;;;;7.53;100.00;97938.69;4962129;29;20114;-79
2021/11/14 02:32:53;;;;;;;61.30;28.45;;;;;;;7.47;100.00;97944.41;4962797;29;20019;-79
2021/11/14 02:35:19;;;;;;;67.68;29.20;;;;;;;7.41;100.00;97946.34;4963183;29;20067;-80
2021/11/14 02:37:45;;;;;;;59.35;28.08;;;;;;;7.33;100.00;97940.66;4967085;29;20179;-80
2021/11/14 02:40:12;;;;;;;58.97;27.20;;;;;;;7.27;100.00;97937.09;4967047;29;20039;-79
2021/11/14 02:42:39;;;;;;;59.03;25.38;;;;;;;7.30;100.00;97930.31;4967249;29;20047;-79
2021/11/14 02:45:06;;;;;;;59.13;26.05;;;;;;;7.27;100.00;97939.81;4968187;29;20543;-79
2021/11/14 02:47:32;;;;;;;59.85;26.10;;;;;;;7.32;100.00;97939.84;4964844;29;20023;-79
2021/11/14 02:49:57;;;;;;;53.60;24.75;;;;;;;7.33;100.00;97941.44;4961184;29;20050;-79
2021/11/14 02:52:23;;;;;;;49.60;23.83;;;;;;;7.33;100.00;97941.44;4960257;29;20039;-78
2021/11/14 02:54:48;;;;;;;50.03;22.25;;;;;;;7.35;100.00;97952.88;4958308;29;20042;-78
2021/11/14 02:57:14;;;;;;;47.38;21.48;;;;;;;7.39;100.00;97948.50;4961117;29;20397;-78
2021/11/14 02:59:39;;;;;;;46.90;22.35;;;;;;;7.35;100.00;97946.63;4960516;29;20086;-79
2021/11/14 03:02:05;;;;;;;42.42;19.55;;;;;;;7.43;100.00;97954.22;4959833;29;20035;-78
2021/11/14 03:04:31;;;;;;;41.92;20.70;;;;;;;7.49;100.00;97958.56;4958686;29;20031;-78
2021/11/14 03:06:59;;;;;;;39.15;19.05;;;;;;;7.44;100.00;97961.31;4961121;29;20082;-79
2021/11/14 03:09:26;;;;;;;37.10;18.77;;;;;;;7.43;100.00;97965.91;4967183;29;20499;-79
2021/11/14 03:11:53;;;;;;;36.60;17.50;;;;;;;7.45;100.00;97963.75;4961880;29;20272;-79
2021/11/14 03:14:19;;;;;;;31.33;16.60;;;;;;;7.43;100.00;97975.97;4960616;29;20019;-78
2021/11/14 03:16:45;;;;;;;30.27;15.35;;;;;;;7.40;100.00;97980.06;4960910;29;20031;-79
2021/11/14 03:19:12;;;;;;;32.15;16.27;;;;;;;7.46;100.00;97972.72;4964379;29;20031;-79
2021/11/14 03:21:38;;;;;;;29.75;15.35;;;;;;;7.48;100.00;97971.38;4960589;29;20122;-79
2021/11/14 03:24:04;;;;;;;29.48;15.30;;;;;;;7.54;100.00;97970.28;4961401;29;20515;-79
2021/11/14 03:26:29;;;;;;;26.13;14.20;;;;;;;7.53;100.00;97970.53;4964728;29;20094;-80
2021/11/14 03:28:55;;;;;;;24.05;14.18;;;;;;;7.46;100.00;97980.88;4969080;29;20031;-80
2021/11/14 03:31:21;;;;;;;27.10;13.85;;;;;;;7.43;100.00;97976.81;4967960;29;20015;-80
2021/11/14 03:33:47;;;;;;;28.48;14.77;;;;;;;7.44;100.00;97973.00;4968040;29;20031;-79
2021/11/14 03:36:15;;;;;;;29.00;14.10;;;;;;;7.45;100.00;97979.28;4963159;29;20053;-79
2021/11/14 03:38:45;;;;;;;25.80;14.00;;;;;;;7.50;100.00;97987.41;4967737;29;20031;-81
2021/11/14 03:41:15;;;;;;;27.95;14.55;;;;;;;7.49;100.00;97986.59;4969695;28;20031;-80
2021/11/14 03:43:41;;;;;;;24.77;13.27;;;;;;;7.51;100.00;97989.06;4968622;29;20042;-80
2021/11/14 03:46:07;;;;;;;24.52;13.98;;;;;;;7.50;100.00;97988.22;4974108;29;20012;-81
2021/11/14 03:48:35;;;;;;;26.70;14.18;;;;;;;7.46;100.00;97995.31;4970662;29;20087;-80
2021/11/14 03:51:01;;;;;;;24.40;12.95;;;;;;;7.44;100.00;97989.34;4968626;29;20503;-79
2021/11/14 03:53:27;;;;;;;23.33;12.98;;;;;;;7.48;100.00;98001.31;4971155;29;20023;-80
2021/11/14 03:55:52;;;;;;;21.95;12.05;;;;;;;7.50;100.00;97995.56;4969174;29;20031;-79
2021/11/14 03:58:18;;;;;;;20.08;11.07;;;;;;;7.53;100.00;97993.13;4971206;29;20050;-79
2021/11/14 04:00:48;;;;;;;20.65;10.98;;;;;;;7.53;100.00;97998.56;4969151;29;20071;-78
2021/11/14 04:03:14;;;;;;;21.83;11.18;;;;;;;7.50;100.00;97999.13;4959357;29;20062;-79
2021/11/14 04:05:41;;;;;;;19.73;11.15;;;;;;;7.50;100.00;97998.28;4960648;29;20029;-80
2021/11/14 04:08:09;;;;;;;18.25;10.25;;;;;;;7.51;100.00;97998.03;4963548;29;20063;-79
2021/11/14 04:10:35;;;;;;;20.13;11.88;;;;;;;7.58;100.00;97995.00;4965326;29;20058;-79
2021/11/14 04:13:00;;;;;;;19.50;11.48;;;;;;;7.47;100.00;97996.13;4977289;29;20034;-76
2021/11/14 04:15:26;;;;;;;19.77;11.68;;;;;;;7.52;100.00;97996.94;4975510;28;20099;-80
2021/11/14 04:17:56;;;;;;;19.55;11.20;;;;;;;7.54;100.00;98002.94;4975203;29;20016;-80
2021/11/14 04:20:23;;;;;;;21.52;11.38;;;;;;;7.51;100.00;98011.66;4966729;29;20091;-80
2021/11/14 04:22:49;;;;;;;20.38;10.52;;;;;;;7.48;100.00;98011.38;4970387;29;20019;-80
2021/11/14 04:25:14;;;;;;;17.88;10.45;;;;;;;7.48;100.00;98009.47;4969932;29;20038;-80
2021/11/14 04:27:40;;;;;;;17.83;10.05;;;;;;;7.55;100.00;98009.16;4967824;29;20098;-80
2021/11/14 04:30:06;;;;;;;20.98;11.45;;;;;;;7.51;100.00;98011.66;4968483;29;20035;-79
2021/11/14 04:32:32;;;;;;;21.23;10.93;;;;;;;7.53;100.00;98009.44;4967953;29;20031;-79
2021/11/14 04:34:57;;;;;;;17.75;10.57;;;;;;;7.58;100.00;98010.53;4965894;29;20439;-78
2021/11/14 04:37:23;;;;;;;19.02;10.65;;;;;;;7.62;100.00;98019.78;4965752;29;20491;-80
2021/11/14 04:39:48;;;;;;;18.02;10.65;;;;;;;7.64;100.00;98015.72;4967213;29;20055;-78
2021/11/14 04:42:13;;;;;;;22.13;10.95;;;;;;;7.67;100.00;98022.50;4952626;29;20071;-78
2021/11/14 04:44:39;;;;;;;16.95;10.18;;;;;;;7.78;100.00;98018.66;4969551;29;20040;-78
2021/11/14 04:47:04;;;;;;;25.73;10.63;;;;;;;7.81;100.00;98023.56;4972832;29;20030;-78
2021/11/14 04:49:30;;;;;;;18.70;10.48;;;;;;;7.81;100.00;98018.09;4966569;29;20027;-79
2021/11/14 04:51:56;;;;;;;18.70;10.05;;;;;;;7.72;100.00;98023.31;4969640;28;20023;-79
2021/11/14 04:54:21;;;;;;;17.80;10.88;;;;;;;7.67;100.00;98025.22;4966376;29;20033;-81
2021/11/14 04:56:48;;;;;;;16.75;9.68;;;;;;;7.84;100.00;98029.25;4978884;28;20042;-74
2021/11/14 04:59:14;;;;;;;15.75;9.70;;;;;;;7.88;100.00;98032.25;4981664;28;20034;-79
2021/11/14 05:01:40;;;;;;;17.65;10.35;;;;;;;7.86;100.00;98037.19;4977911;29;20034;-80
2021/11/14 05:04:06;;;;;;;18.60;10.77;;;;;;;7.88;100.00;98034.97;4980180;28;20019;-80
2021/11/14 05:06:32;;;;;;;19.35;10.85;;;;;;;7.90;100.00;98047.22;4974602;29;20055;-78
2021/11/14 05:08:58;;;;;;;19.25;10.50;;;;;;;7.91;100.00;98040.69;4965016;29;20034;-78
2021/11/14 05:11:23;;;;;;;16.27;10.45;;;;;;;8.05;100.00;98043.63;4965105;29;20026;-80
2021/11/14 05:13:49;;;;;;;16.42;10.45;;;;;;;8.05;100.00;98044.47;4970406;28;20114;-79
2021/11/14 05:16:14;;;;;;;17.08;10.77;;;;;;;8.06;100.00;98042.56;4981765;28;20046;-79
2021/11/14 05:18:40;;;;;;;18.15;10.43;;;;;;;8.16;100.00;98047.97;4979115;29;20071;-78
2021/11/14 05:21:07;;;;;;;19.48;10.18;;;;;;;8.20;100.00;98040.06;4982320;28;20015;-74
2021/11/14 05:23:33;;;;;;;20.27;11.27;;;;;;;8.14;100.00;98046.63;4982192;28;20070;-75
2021/11/14 05:25:58;;;;;;;18.58;10.57;;;;;;;8.18;100.00;98045.78;4971449;29;20043;-78
2021/11/14 05:28:24;;;;;;;19.70;11.50;;;;;;;8.20;100.00;98051.78;4965631;29;20042;-78
2021/11/14 05:30:49;;;;;;;20.25;11.00;;;;;;;8.25;100.00;98054.47;4967885;29;20023;-76
2021/11/14 05:33:15;;;;;;;20.23;11.93;;;;;;;8.00;100.00;98049.94;4968418;29;20110;-78
2021/11/14 05:35:41;;;;;;;20.98;11.35;;;;;;;8.04;100.00;98052.91;4967664;29;20061;-79
2021/11/14 05:38:07;;;;;;;19.73;11.50;;;;;;;8.06;100.00;98056.16;4968966;29;20044;-78
2021/11/14 05:40:33;;;;;;;20.27;11.20;;;;;;;8.04;100.00;98053.75;4967077;29;20039;-79
2021/11/14 05:42:59;;;;;;;20.42;11.85;;;;;;;7.94;100.00;98055.66;4967215;29;20023;-80
2021/11/14 05:45:24;;;;;;;20.23;11.45;;;;;;;7.93;100.00;98056.75;4966638;29;20058;-79
2021/11/14 05:47:50;;;;;;;24.15;12.77;;;;;;;7.76;100.00;98061.69;4967689;29;20064;-79
2021/11/14 05:50:16;;;;;;;23.85;12.65;;;;;;;7.84;100.00;98061.13;4966813;29;20023;-78
2021/11/14 05:52:42;;;;;;;23.33;12.88;;;;;;;7.88;100.00;98065.75;4950605;29;20543;-76
2021/11/14 05:55:08;;;;;;;21.52;12.88;;;;;;;7.93;100.00;98073.06;4966111;29;20039;-80
2021/11/14 05:57:47;;;;;;;27.08;13.38;;;;;;;7.97;100.00;98069.53;4965953;29;20388;-79
2021/11/14 06:00:19;;;;;;;24.13;12.82;;;;;;;7.91;100.00;98073.38;4967592;29;20031;-80
2021/11/14 06:02:49;;;;;;;26.00;14.32;;;;;;;7.84;100.00;98075.56;4966726;28;20031;-79
2021/11/14 06:05:16;;;;;;;28.67;13.27;;;;;;;7.91;100.00;98078.00;4966045;29;20094;-78
2021/11/14 06:07:46;;;;;;;29.88;14.13;;;;;;;7.96;100.00;98075.25;4965030;29;20055;-78
2021/11/14 06:10:12;;;;;;;28.92;14.45;;;;;;;7.90;100.00;98085.34;4948917;29;20039;-80
2021/11/14 06:12:39;;;;;;;27.35;15.30;;;;;;;7.86;100.00;98083.47;4965590;29;20050;-79
2021/11/14 06:15:10;;;;;;;32.10;15.52;;;;;;;7.88;100.00;98092.97;4972329;28;20026;-73
2021/11/14 06:17:36;;;;;;;27.65;14.48;;;;;;;7.83;100.00;98094.91;4981665;28;20011;-75
2021/11/14 06:20:03;;;;;;;31.98;15.77;;;;;;;7.82;100.00;98096.81;4955156;29;20042;-80
2021/11/14 06:22:29;;;;;;;33.00;16.55;;;;;;;7.83;100.00;98101.13;4969492;29;20031;-79
2021/11/14 06:24:54;;;;;;;30.85;16.15;;;;;;;7.88;100.00;98095.72;4972057;29;20039;-79
2021/11/14 06:27:20;;;;;;;30.02;16.40;;;;;;;7.92;100.00;98109.59;4972378;29;20015;-79
2021/11/14 06:29:45;;;;;;;34.13;16.17;;;;;;;7.86;100.00;98099.81;4967605;29;20028;-77
2021/11/14 06:32:11;;;;;;;32.38;17.50;;;;;;;7.87;100.00;98112.31;4969475;29;20007;-79
2021/11/14 06:34:36;;;;;;;39.13;17.58;;;;;;;7.77;100.00;98126.75;4966758;29;20082;-79
2021/11/14 06:37:03;;;;;;;38.13;18.48;;;;;;;7.69;100.00;98127.31;4963721;29;20035;-80
2021/11/14 06:39:28;;;;;;;32.60;17.77;;;;;;;7.73;100.00;98128.41;4963370;29;20027;-79
2021/11/14 06:41:54;;;;;;;40.20;18.67;;;;;;;7.71;100.00;98140.63;4964981;29;20031;-79
2021/11/14 06:44:19;;;;;;;36.60;18.13;;;;;;;7.69;100.00;98134.66;4965310;29;20091;-79
2021/11/14 06:46:45;;;;;;;38.83;19.48;;;;;;;7.65;100.00;98141.72;4966612;29;20034;-80
2021/11/14 06:49:10;;;;;;;39.53;19.60;;;;;;;7.62;100.00;98142.25;4965373;29;20388;-80
2021/11/14 06:51:35;;;;;;;62.22;33.33;;;;;;;7.62;100.00;98142.25;4964714;29;20027;-79
2021/11/14 06:54:01;;;;;;;41.20;20.45;;;;;;;7.63;100.00;98149.34;4964562;29;20019;-80
2021/11/14 06:56:26;;;;;;;100.68;51.70;;;;;;;7.67;100.00;98153.16;4965304;29;20063;-78
2021/11/14 06:58:52;;;;;;;42.13;22.63;;;;;;;7.68;100.00;98155.59;4964532;29;20038;-78
2021/11/14 07:01:17;;;;;;;37.58;20.70;;;;;;;7.62;100.00;98153.16;4971075;29;21251;-80
2021/11/14 07:03:43;;;;;;;80.78;42.20;;;;;;;7.56;100.00;98141.44;4970780;29;20023;-79
2021/11/14 07:06:08;;;;;;;39.83;21.02;;;;;;;7.51;100.00;98157.78;4978076;28;20023;-78
2021/11/14 07:08:34;;;;;;;195.63;122.03;;;;;;;7.42;100.00;98160.19;4984006;28;20038;-76
2021/11/14 07:11:00;;;;;;;40.28;19.63;;;;;;;7.42;100.00;98162.91;4989399;28;20029;-75
2021/11/14 07:13:26;;;;;;;34.03;18.02;;;;;;;7.54;100.00;98160.78;4996936;28;20026;-78
2021/11/14 07:15:51;;;;;;;39.40;20.38;;;;;;;7.56;100.00;98160.50;4997806;28;20027;-74
2021/11/14 07:18:17;;;;;;;34.67;17.80;;;;;;;7.55;100.00;98158.84;4998737;28;20058;-79
2021/11/14 07:20:43;;;;;;;35.72;17.67;;;;;;;7.60;100.00;98168.94;4991700;28;20054;-80
2021/11/14 07:23:08;;;;;;;41.20;19.27;;;;;;;7.65;100.00;98160.78;4991380;28;20015;-80
2021/11/14 07:25:34;;;;;;;38.10;18.52;;;;;;;7.67;100.00;98169.50;4991782;28;20031;-79
2021/11/14 07:27:59;;;;;;;32.13;17.35;;;;;;;7.61;100.00;98167.88;4990951;28;20057;-81
2021/11/14 07:30:25;;;;;;;32.55;16.55;;;;;;;7.61;100.00;98173.31;4993392;28;20006;-78
2021/11/14 07:32:53;;;;;;;30.60;17.73;;;;;;;7.59;100.00;98175.47;4992901;28;20034;-81
2021/11/14 07:35:23;;;;;;;37.53;17.27;;;;;;;7.51;100.00;98176.84;4988623;28;20033;-81
2021/11/14 07:37:49;;;;;;;34.67;16.40;;;;;;;7.42;100.00;98181.97;4990531;28;20003;-77
2021/11/14 07:40:17;;;;;;;30.42;14.93;;;;;;;7.55;100.00;98181.44;4995411;28;20021;-79
2021/11/14 07:42:46;;;;;;;42.75;18.42;;;;;;;7.54;100.00;98176.28;4993290;28;20030;-77
2021/11/14 07:45:15;;;;;;;36.72;17.75;;;;;;;7.55;100.00;98181.44;4982409;28;20046;-79
2021/11/14 07:47:40;;;;;;;33.50;16.25;;;;;;;7.66;100.00;98178.75;4980982;28;20014;-79
2021/11/14 07:50:07;;;;;;;28.13;15.23;;;;;;;7.60;100.00;98188.00;4980835;28;20026;-79
2021/11/14 07:52:32;;;;;;;31.48;15.52;;;;;;;7.71;100.00;98187.72;4977262;28;20027;-78
2021/11/14 07:54:58;;;;;;;35.97;16.38;;;;;;;7.83;100.00;98187.50;4984702;28;20023;-80
2021/11/14 07:57:25;;;;;;;29.80;14.73;;;;;;;7.84;100.00;98186.38;4985754;28;20029;-80
2021/11/14 07:59:51;;;;;;;26.75;14.52;;;;;;;7.78;100.00;98190.19;4988969;28;20038;-81
2021/11/14 08:02:17;;;;;;;28.58;14.38;;;;;;;7.72;100.00;98188.56;4992354;28;20035;-80
2021/11/14 08:04:43;;;;;;;30.55;13.57;;;;;;;7.70;100.00;98193.47;4987010;28;20039;-80
2021/11/14 08:07:09;;;;;;;31.95;14.82;;;;;;;7.75;100.00;98185.28;4987452;28;20049;-80
2021/11/14 08:09:35;;;;;;;28.08;14.30;;;;;;;7.69;100.00;98186.38;4983998;28;20054;-79
2021/11/14 08:12:01;;;;;;;30.60;14.52;;;;;;;7.68;100.00;98184.72;4986430;28;20054;-79
2021/11/14 08:14:27;;;;;;;25.65;13.63;;;;;;;7.64;100.00;98186.38;4983121;28;20023;-80
2021/11/14 08:16:52;;;;;;;29.23;14.70;;;;;;;7.66;100.00;98186.91;4979513;28;20038;-78
2021/11/14 08:19:18;;;;;;;25.70;13.27;;;;;;;7.72;100.00;98186.66;4983172;28;20030;-79
2021/11/14 08:21:44;;;;;;;29.40;13.80;;;;;;;7.78;100.00;98188.28;4983832;28;20460;-79
2021/11/14 08:24:09;;;;;;;26.38;13.05;;;;;;;7.68;100.00;98195.63;4984101;28;20082;-77
2021/11/14 08:26:35;;;;;;;27.80;13.50;;;;;;;7.81;100.00;98195.09;4979379;28;20117;-77
2021/11/14 08:29:00;;;;;;;26.33;13.73;;;;;;;7.72;100.00;98192.09;4988589;28;20484;-78
2021/11/14 08:31:26;;;;;;;19.60;11.30;;;;;;;7.84;100.00;98186.38;4979298;28;20030;-79
2021/11/14 08:33:52;;;;;;;18.27;10.07;;;;;;;7.80;100.00;98188.03;4979227;28;20022;-78
2021/11/14 08:36:21;;;;;;;21.55;10.57;;;;;;;7.80;100.00;98190.75;4987504;28;20026;-76
2021/11/14 08:38:47;;;;;;;17.90;10.73;;;;;;;7.79;100.00;98197.28;4987265;28;20091;-76
2021/11/14 08:41:12;;;;;;;20.08;10.25;;;;;;;7.80;100.00;98198.91;4982747;28;20062;-78
2021/11/14 08:43:39;;;;;;;20.38;10.55;;;;;;;7.86;100.00;98192.38;4970184;28;20031;-79
2021/11/14 08:46:05;;;;;;;16.67;9.05;;;;;;;7.93;100.00;98209.25;4972244;28;20055;-81
2021/11/14 08:48:31;;;;;;;18.20;9.60;;;;;;;7.89;100.00;98210.91;4977106;28;20027;-73
2021/11/14 08:50:57;;;;;;;19.58;9.30;;;;;;;8.02;100.00;98207.63;4960890;28;20030;-73
2021/11/14 08:53:23;;;;;;;17.90;9.63;;;;;;;8.15;100.00;98207.06;4960266;28;23320;-73
2021/11/14 08:55:56;;;;;;;18.42;10.35;;;;;;;8.13;100.00;98203.81;4959714;28;20054;-76
2021/11/14 08:58:22;;;;;;;15.38;8.10;;;;;;;8.22;100.00;98204.06;4959552;28;20035;-73
2021/11/14 09:00:48;;;;;;;19.92;9.43;;;;;;;8.29;100.00;98200.03;4959789;28;20023;-75
2021/11/14 09:03:14;;;;;;;15.25;9.15;;;;;;;8.28;100.00;98201.09;4960050;28;20070;-74
2021/11/14 09:05:39;;;;;;;16.48;9.35;;;;;;;8.21;100.00;98195.06;4962241;28;20089;-73
2021/11/14 09:08:06;;;;;;;19.80;10.07;;;;;;;8.28;100.00;98198.38;4965468;28;20058;-78
2021/11/14 09:10:41;;;;;;;17.17;10.13;;;;;;;8.22;100.00;98204.06;4988491;28;20039;-78
2021/11/14 09:13:09;;;;;;;20.52;10.75;;;;;;;8.33;100.00;98203.81;4981360;28;20011;-80
2021/11/14 09:15:38;;;;;;;20.05;10.02;;;;;;;8.26;100.00;98203.25;4980953;28;20055;-80
2021/11/14 09:18:03;;;;;;;15.40;9.82;;;;;;;8.33;100.00;98197.56;4982064;28;20023;-81
2021/11/14 09:20:29;;;;;;;20.40;10.27;;;;;;;8.37;100.00;98213.09;4980006;28;20039;-80
2021/11/14 09:22:58;;;;;;;21.27;10.65;;;;;;;8.29;100.00;98212.81;4981542;28;20050;-79
2021/11/14 09:25:24;;;;;;;18.23;9.57;;;;;;;8.37;100.00;98225.88;4975399;28;20508;-80
2021/11/14 09:27:50;;;;;;;15.55;9.27;;;;;;;8.39;100.00;98218.28;4967562;28;20018;-78
2021/11/14 09:30:17;;;;;;;17.15;10.13;;;;;;;8.40;100.00;98219.88;4968785;28;20054;-79
2021/11/14 09:32:44;;;;;;;17.08;9.48;;;;;;;8.48;100.00;98228.34;4952086;28;20023;-80
2021/11/14 09:35:11;;;;;;;22.55;10.93;;;;;;;8.55;100.00;98220.69;4972027;28;20031;-80
2021/11/14 09:37:36;;;;;;;18.45;8.40;;;;;;;8.38;100.00;98228.34;4954688;28;20032;-79
2021/11/14 09:40:04;;;;;;;12.73;8.48;;;;;;;8.56;100.00;98225.03;4969656;28;20042;-79
2021/11/14 09:42:32;;;;;;;13.65;7.82;;;;;;;8.55;100.00;98228.06;4974762;28;20218;-78
2021/11/14 09:44:58;;;;;;;17.63;9.18;;;;;;;8.38;100.00;98222.91;4962352;28;20041;-79
2021/11/14 09:47:23;;;;;;;13.50;8.45;;;;;;;8.40;100.00;98231.59;4970232;28;20066;-80
2021/11/14 09:49:49;;;;;;;12.88;7.72;;;;;;;8.30;100.00;98215.25;4981121;28;20059;-80
2021/11/14 09:52:15;;;;;;;16.25;8.65;;;;;;;8.23;100.00;98214.72;4989906;28;20038;-78
2021/11/14 09:54:42;;;;;;;13.43;8.23;;;;;;;8.32;100.00;98221.28;4985888;28;20015;-78
2021/11/14 09:57:09;;;;;;;16.25;8.55;;;;;;;8.27;100.00;98220.44;4975018;28;20025;-74
2021/11/14 09:59:35;;;;;;;14.05;8.02;;;;;;;8.16;100.00;98210.63;4995729;28;20042;-75
2021/11/14 10:02:03;;;;;;;14.10;8.23;;;;;;;8.29;100.00;98221.81;4975486;28;20710;-78
2021/11/14 10:04:29;;;;;;;14.80;8.32;;;;;;;8.41;100.00;98225.06;4964861;28;20130;-77
2021/11/14 10:07:10;;;;;;;12.82;7.78;;;;;;;8.29;100.00;98218.28;4980189;28;20675;-80
2021/11/14 10:09:40;;;;;;;14.20;8.40;;;;;;;8.40;100.00;98226.16;4962210;28;20023;-80
2021/11/14 10:12:24;;;;;;;15.57;8.50;;;;;;;8.11;100.00;98230.53;4968167;28;20118;-77
2021/11/14 10:15:10;;;;;;;13.07;7.93;;;;;;;8.27;100.00;98226.69;4969270;28;20042;-79
2021/11/14 10:17:38;;;;;;;13.27;8.40;;;;;;;8.24;100.00;98232.69;4966376;28;20054;-77
2021/11/14 10:20:19;;;;;;;15.32;8.07;;;;;;;8.38;100.00;98232.97;4982215;28;20030;-78
2021/11/14 10:22:49;;;;;;;15.77;8.05;;;;;;;8.44;100.00;98237.34;4966813;28;20042;-79
2021/11/14 10:25:16;;;;;;;13.95;7.47;;;;;;;8.47;100.00;98239.50;4968347;28;20507;-79
2021/11/14 10:27:46;;;;;;;13.55;8.43;;;;;;;8.41;100.00;98233.25;4968318;28;20117;-80
2021/11/14 10:30:13;;;;;;;12.18;8.00;;;;;;;8.44;100.00;98242.78;4954824;28;20036;-78
2021/11/14 10:32:39;;;;;;;13.77;7.07;;;;;;;8.42;100.00;98240.34;4968455;28;20066;-77
2021/11/14 10:35:06;;;;;;;13.10;7.68;;;;;;;8.46;100.00;98238.69;4943583;28;20142;-77
2021/11/14 10:37:43;;;;;;;16.17;9.68;;;;;;;8.39;100.00;98234.63;4961207;28;20787;-77
2021/11/14 10:40:22;;;;;;;14.63;8.52;;;;;;;8.46;100.00;98238.69;4942403;28;21311;-77
2021/11/14 10:42:59;;;;;;;13.43;8.77;;;;;;;8.48;100.00;98235.69;4960668;28;20492;-77
2021/11/14 10:45:25;;;;;;;13.55;8.70;;;;;;;8.56;100.00;98230.50;4960668;28;20046;-77
2021/11/14 10:47:56;;;;;;;14.52;8.88;;;;;;;8.71;100.00;98237.03;4960976;28;20035;-77
2021/11/14 10:50:26;;;;;;;16.50;9.07;;;;;;;8.76;100.00;98239.72;4969666;28;20037;-79
2021/11/14 10:52:57;;;;;;;15.27;9.02;;;;;;;8.90;100.00;98229.84;4972515;28;20050;-81
2021/11/14 10:55:25;;;;;;;18.70;9.80;;;;;;;8.91;100.00;98226.06;4973062;28;20023;-77
2021/11/14 10:57:51;;;;;;;31.55;17.75;;;;;;;8.83;100.00;98219.28;4960412;28;20022;-76
2021/11/14 11:00:18;;;;;;;19.95;10.73;;;;;;;8.88;100.00;98221.97;4959956;28;20046;-77
2021/11/14 11:02:45;;;;;;;17.05;11.32;;;;;;;8.78;100.00;98216.53;4960347;28;20031;-76
2021/11/14 11:05:14;;;;;;;16.80;10.40;;;;;;;8.85;100.00;98213.53;4960676;28;20039;-76
2021/11/14 11:07:41;;;;;;;18.90;10.52;;;;;;;9.01;100.00;98221.38;4955884;28;20856;-76
2021/11/14 11:10:08;;;;;;;17.77;9.77;;;;;;;8.83;100.00;98219.28;4960947;28;20027;-75
2021/11/14 11:12:34;;;;;;;16.63;9.70;;;;;;;8.68;100.00;98213.84;4967389;28;20030;-76
2021/11/14 11:15:00;;;;;;;13.75;8.02;;;;;;;8.69;100.00;98217.38;4957712;28;20701;-77
2021/11/14 11:17:42;;;;;;;15.32;8.25;;;;;;;8.67;100.00;98208.69;4961710;28;20094;-79